Time;durP1;ratioP1;P1;durP2;ratioP2;P2;SDS_P1;SDS_P2;PMS_P1;PMS_P2;Temp;Humidity;BMP_temperature;BMP_pressure;BME280_temperature;BME280_humidity;BME280_pressure;Samples;Min_cycle;Max_cycle;Signal;HPM_P1;HPM_P2
2023/08/29 00:01:47;;;;;;;1999.90;999.90;;;16.70;99.90;;;;;;5073225;28;20025;-73
2023/08/29 00:04:14;;;;;;;1999.90;999.90;;;16.70;99.90;;;;;;5072877;28;20048;-73
2023/08/29 00:06:40;;;;;;;1999.90;999.90;;;16.70;99.90;;;;;;5082642;28;20056;-73
2023/08/29 00:09:05;;;;;;;1999.90;999.90;;;16.60;99.90;;;;;;5073145;28;20035;-73
2023/08/29 00:11:31;;;;;;;1999.90;999.90;;;16.50;99.90;;;;;;5072919;28;20506;-70
2023/08/29 00:13:57;;;;;;;1999.90;999.90;;;16.50;99.90;;;;;;5072844;28;20095;-73
2023/08/29 00:16:22;;;;;;;1999.90;999.90;;;16.50;99.90;;;;;;5072797;28;20032;-73
2023/08/29 00:18:48;;;;;;;1999.90;999.90;;;16.40;99.90;;;;;;5072803;28;20502;-73
2023/08/29 00:21:14;;;;;;;1999.90;999.90;;;16.40;99.90;;;;;;5072231;28;20032;-72
2023/08/29 00:23:39;;;;;;;1999.90;999.90;;;16.40;99.90;;;;;;5084464;28;20103;-69
2023/08/29 00:26:05;;;;;;;1999.90;999.90;;;16.30;99.90;;;;;;5093030;28;20028;-70
2023/08/29 00:28:31;;;;;;;1999.90;999.90;;;16.30;99.90;;;;;;5086815;28;20030;-73
2023/08/29 00:30:56;;;;;;;1999.90;999.90;;;16.20;99.90;;;;;;5085110;28;20106;-73
2023/08/29 00:33:22;;;;;;;1999.90;999.90;;;16.20;99.90;;;;;;5093281;28;20024;-73
2023/08/29 00:35:48;;;;;;;1999.90;999.90;;;16.20;99.90;;;;;;5093051;28;20036;-70
2023/08/29 00:38:14;;;;;;;1999.90;999.90;;;16.10;99.90;;;;;;5092624;28;20028;-69
2023/08/29 00:40:40;;;;;;;1999.90;999.90;;;16.10;99.90;;;;;;5092931;28;20101;-73
2023/08/29 00:43:06;;;;;;;1999.90;999.90;;;16.10;99.90;;;;;;5092859;28;20486;-73
2023/08/29 00:45:37;;;;;;;1999.90;999.90;;;16.00;99.90;;;;;;5073375;28;20028;-73
2023/08/29 00:48:04;;;;;;;1999.90;999.90;;;16.00;99.90;;;;;;5072685;28;20487;-73
2023/08/29 00:50:30;;;;;;;1999.90;999.90;;;16.00;99.90;;;;;;5072554;28;20032;-69
2023/08/29 00:53:00;;;;;;;1999.90;999.90;;;15.90;99.90;;;;;;5072515;28;20024;-73
2023/08/29 00:55:27;;;;;;;1999.90;999.90;;;15.90;99.90;;;;;;5072642;28;20038;-73
2023/08/29 00:57:56;;;;;;;1999.90;999.90;;;15.80;99.90;;;;;;5072655;28;20031;-73
2023/08/29 01:00:26;;;;;;;1999.90;999.90;;;15.80;99.90;;;;;;5072369;28;20028;-73
2023/08/29 01:02:52;;;;;;;1999.90;999.90;;;15.70;99.90;;;;;;5072429;28;20460;-69
2023/08/29 01:05:17;;;;;;;1999.90;999.90;;;15.70;99.90;;;;;;5076764;28;20093;-70
2023/08/29 01:07:43;;;;;;;1999.90;999.90;;;15.70;99.90;;;;;;5083593;28;20028;-73
2023/08/29 01:10:09;;;;;;;1999.90;999.90;;;15.60;99.90;;;;;;5090479;28;20554;-73
2023/08/29 01:13:03;;;;;;;1999.90;999.90;;;15.60;99.90;;;;;;5072423;28;20063;-73
2023/08/29 01:15:31;;;;;;;1999.90;999.90;;;15.50;99.90;;;;;;5072344;28;20040;-70
2023/08/29 01:18:01;;;;;;;1999.90;999.90;;;15.40;99.90;;;;;;5072262;28;20040;-69
2023/08/29 01:20:30;;;;;;;1999.90;999.90;;;15.40;99.90;;;;;;5072557;28;20025;-69
2023/08/29 01:23:04;;;;;;;1999.90;999.90;;;15.40;99.90;;;;;;5072175;28;20063;-73
2023/08/29 01:25:37;;;;;;;1999.90;999.90;;;15.40;99.90;;;;;;5072439;28;20025;-73
2023/08/29 01:28:04;;;;;;;1999.90;999.90;;;15.40;99.90;;;;;;5075382;28;20398;-69
2023/08/29 01:30:32;;;;;;;1999.90;999.90;;;15.30;99.90;;;;;;5083449;28;20032;-69
2023/08/29 01:32:59;;;;;;;1999.90;999.90;;;15.30;99.90;;;;;;5092454;28;20058;-73
2023/08/29 01:35:25;;;;;;;1999.90;999.90;;;15.30;99.90;;;;;;5094779;28;20116;-72
2023/08/29 01:37:51;;;;;;;1999.90;999.90;;;15.30;99.90;;;;;;5095900;28;20078;-73
2023/08/29 01:40:17;;;;;;;1999.90;999.90;;;15.20;99.90;;;;;;5096366;28;20028;-73
2023/08/29 01:42:42;;;;;;;1999.90;999.90;;;15.20;99.90;;;;;;5096262;28;20103;-69
2023/08/29 01:45:08;;;;;;;1999.90;999.90;;;15.30;99.90;;;;;;5079860;28;20364;-73
2023/08/29 01:47:34;;;;;;;1999.90;999.90;;;15.30;99.90;;;;;;5075728;28;20046;-73
2023/08/29 01:50:04;;;;;;;1999.90;999.90;;;15.30;99.90;;;;;;5075691;28;20405;-73
2023/08/29 01:52:30;;;;;;;1999.90;999.90;;;15.30;99.90;;;;;;5075512;28;20048;-73
2023/08/29 01:54:57;;;;;;;1999.90;999.90;;;15.30;99.90;;;;;;5075488;28;20111;-70
2023/08/29 01:57:24;;;;;;;1999.90;999.90;;;15.30;99.90;;;;;;5075742;28;20017;-69
2023/08/29 01:59:51;;;;;;;1999.90;999.90;;;15.30;99.90;;;;;;5075472;28;20025;-73
2023/08/29 02:02:18;;;;;;;1999.90;999.90;;;15.20;99.90;;;;;;5075442;28;20487;-73
2023/08/29 02:04:43;;;;;;;1999.90;999.90;;;15.20;99.90;;;;;;5078478;28;20052;-73
2023/08/29 02:07:09;;;;;;;1999.90;999.90;;;15.20;99.90;;;;;;5080557;28;20044;-69
2023/08/29 02:09:35;;;;;;;1999.90;999.90;;;15.10;99.90;;;;;;5085588;28;20028;-69
2023/08/29 02:12:00;;;;;;;1999.90;999.90;;;15.10;99.90;;;;;;5077990;28;20032;-73
2023/08/29 02:14:26;;;;;;;1999.90;999.90;;;15.10;99.90;;;;;;5074982;28;20099;-73
2023/08/29 02:16:51;;;;;;;1999.90;999.90;;;15.00;99.90;;;;;;5075250;28;20032;-73
2023/08/29 02:19:17;;;;;;;1999.90;999.90;;;15.00;99.90;;;;;;5091299;28;20020;-73
2023/08/29 02:21:42;;;;;;;1999.90;999.90;;;15.00;99.90;;;;;;5095417;28;20103;-70
2023/08/29 02:24:08;;;;;;;1999.90;999.90;;;14.90;99.90;;;;;;5094961;28;20028;-73
2023/08/29 02:26:34;;;;;;;1999.90;999.90;;;14.90;99.90;;;;;;5095244;28;20064;-73
2023/08/29 02:28:59;;;;;;;1999.90;999.90;;;14.90;99.90;;;;;;5084001;28;20036;-73
2023/08/29 02:31:25;;;;;;;1999.90;999.90;;;14.90;99.90;;;;;;5079275;28;20041;-73
2023/08/29 02:33:51;;;;;;;1999.90;999.90;;;14.80;99.90;;;;;;5074838;28;20052;-69
2023/08/29 02:36:17;;;;;;;1999.90;999.90;;;14.80;99.90;;;;;;5074823;28;20074;-69
2023/08/29 02:38:42;;;;;;;1999.90;999.90;;;14.80;99.90;;;;;;5074857;28;20020;-73
2023/08/29 02:41:11;;;;;;;1999.90;999.90;;;14.80;99.90;;;;;;5074974;28;20024;-73
2023/08/29 02:43:37;;;;;;;1999.90;999.90;;;14.80;99.90;;;;;;5074466;28;20099;-73
2023/08/29 02:46:03;;;;;;;1999.90;999.90;;;14.70;99.90;;;;;;5073399;28;20043;-69
2023/08/29 02:48:28;;;;;;;1999.90;999.90;;;14.70;99.90;;;;;;5075402;28;20051;-69
2023/08/29 02:50:54;;;;;;;1999.90;999.90;;;14.70;99.90;;;;;;5095056;28;20024;-73
2023/08/29 02:53:20;;;;;;;1999.90;999.90;;;14.70;99.90;;;;;;5094969;28;20043;-73
2023/08/29 02:55:49;;;;;;;1999.90;999.90;;;14.70;99.90;;;;;;5094797;28;20142;-73
2023/08/29 02:58:14;;;;;;;1999.90;999.90;;;14.70;99.90;;;;;;5094545;28;20514;-73
2023/08/29 03:00:40;;;;;;;1999.90;999.90;;;14.70;99.90;;;;;;5089575;28;20028;-69
2023/08/29 03:03:06;;;;;;;1999.90;999.90;;;14.60;99.90;;;;;;5074397;28;20103;-72
2023/08/29 03:05:32;;;;;;;1999.90;999.90;;;14.60;99.90;;;;;;5074120;28;20107;-73
2023/08/29 03:07:59;;;;;;;1999.90;999.90;;;14.70;99.90;;;;;;5074127;28;20035;-73
2023/08/29 03:10:25;;;;;;;1999.90;999.90;;;14.60;99.90;;;;;;5077098;28;20024;-73
2023/08/29 03:12:51;;;;;;;1999.90;999.90;;;14.60;99.90;;;;;;5074202;28;20167;-69
2023/08/29 03:15:18;;;;;;;1999.90;999.90;;;14.60;99.90;;;;;;5089983;28;20024;-69
2023/08/29 03:17:44;;;;;;;1999.90;999.90;;;14.60;99.90;;;;;;5094278;28;20505;-72
2023/08/29 03:20:11;;;;;;;1999.90;999.90;;;14.60;99.90;;;;;;5092392;28;20078;-73
2023/08/29 03:22:37;;;;;;;1999.90;999.90;;;14.60;99.90;;;;;;5076920;28;20425;-73
2023/08/29 03:25:03;;;;;;;1999.90;999.90;;;14.60;99.90;;;;;;5094226;28;20031;-69
2023/08/29 03:27:28;;;;;;;1999.90;999.90;;;14.60;99.90;;;;;;5091645;28;20040;-73
2023/08/29 03:29:54;;;;;;;1999.90;999.90;;;14.60;99.90;;;;;;5082176;28;20469;-73
2023/08/29 03:32:20;;;;;;;1999.90;999.90;;;14.60;99.90;;;;;;5094191;28;20471;-73
2023/08/29 03:34:52;;;;;;;1999.90;999.90;;;14.60;99.90;;;;;;5093888;28;20028;-73
2023/08/29 03:37:17;;;;;;;1999.90;999.90;;;14.60;99.90;;;;;;5093925;28;20034;-73
2023/08/29 03:39:43;;;;;;;1999.90;999.90;;;14.60;99.90;;;;;;5093698;28;20020;-69
2023/08/29 03:42:08;;;;;;;1999.90;999.90;;;14.60;99.90;;;;;;5093609;28;20440;-73
2023/08/29 03:44:34;;;;;;;1999.90;999.90;;;14.60;99.90;;;;;;5082077;28;20031;-73
2023/08/29 03:47:00;;;;;;;1999.90;999.90;;;14.60;99.90;;;;;;5073600;28;20427;-73
2023/08/29 03:49:25;;;;;;;1999.90;999.90;;;14.60;99.90;;;;;;5073624;28;20040;-73
2023/08/29 03:51:51;;;;;;;1999.90;999.90;;;14.70;99.90;;;;;;5073489;28;20480;-69
2023/08/29 03:54:16;;;;;;;1999.90;999.90;;;14.70;99.90;;;;;;5073188;28;20031;-69
2023/08/29 03:56:43;;;;;;;1999.90;999.90;;;14.70;99.90;;;;;;5073337;28;20063;-71
2023/08/29 03:59:09;;;;;;;1999.90;999.90;;;14.70;99.90;;;;;;5073096;28;20031;-69
2023/08/29 04:01:34;;;;;;;1999.90;999.90;;;14.70;99.90;;;;;;5073272;28;20133;-73
2023/08/29 04:04:00;;;;;;;1999.90;999.90;;;14.70;99.90;;;;;;5073055;28;20048;-70
2023/08/29 04:06:26;;;;;;;1999.90;999.90;;;14.70;99.90;;;;;;5081895;28;20065;-69
2023/08/29 04:08:52;;;;;;;1999.90;999.90;;;14.80;99.90;;;;;;5081392;28;20024;-73
2023/08/29 04:11:17;;;;;;;1999.90;999.90;;;14.90;99.90;;;;;;5073180;28;20082;-73
2023/08/29 04:13:43;;;;;;;1999.90;999.90;;;14.90;99.90;;;;;;5076396;28;20425;-73
2023/08/29 04:16:09;;;;;;;1999.90;999.90;;;15.00;99.90;;;;;;5093041;28;20102;-73
2023/08/29 04:18:35;;;;;;;1999.90;999.90;;;15.00;99.90;;;;;;5087120;28;20082;-69
2023/08/29 04:21:00;;;;;;;1999.90;999.90;;;15.10;99.90;;;;;;5093449;28;20020;-73
2023/08/29 04:23:26;;;;;;;1999.90;999.90;;;15.10;99.90;;;;;;5092737;28;20031;-69
2023/08/29 04:25:59;;;;;;;1999.90;999.90;;;15.20;99.90;;;;;;5093130;28;20391;-73
2023/08/29 04:28:25;;;;;;;1999.90;999.90;;;15.20;99.90;;;;;;5086659;28;20431;-73
2023/08/29 04:30:50;;;;;;;1999.90;999.90;;;15.20;99.90;;;;;;5087403;28;20012;-69
2023/08/29 04:33:16;;;;;;;1999.90;999.90;;;15.20;99.90;;;;;;5092526;28;20035;-70
2023/08/29 04:35:42;;;;;;;1999.90;999.90;;;15.30;99.90;;;;;;5092228;28;20569;-73
2023/08/29 04:38:08;;;;;;;1999.90;999.90;;;15.30;99.90;;;;;;5092552;28;20028;-73
2023/08/29 04:40:35;;;;;;;1999.90;999.90;;;15.30;99.90;;;;;;5080463;28;20399;-73
2023/08/29 04:43:01;;;;;;;1999.90;999.90;;;15.30;99.90;;;;;;5072675;28;20471;-69
2023/08/29 04:45:27;;;;;;;1999.90;999.90;;;15.30;99.90;;;;;;5078481;28;20115;-69
2023/08/29 04:47:52;;;;;;;1999.90;999.90;;;15.40;99.90;;;;;;5088346;28;20031;-73
2023/08/29 04:50:18;;;;;;;1999.90;999.90;;;15.40;99.90;;;;;;5092676;28;20092;-73
2023/08/29 04:52:44;;;;;;;1999.90;999.90;;;15.40;99.90;;;;;;5092564;28;20469;-73
2023/08/29 04:55:10;;;;;;;1999.90;999.90;;;15.40;99.90;;;;;;5092516;28;20024;-73
2023/08/29 04:57:36;;;;;;;1999.90;999.90;;;15.50;99.90;;;;;;5092859;28;20036;-70
2023/08/29 05:00:04;;;;;;;1999.90;999.90;;;15.50;99.90;;;;;;5087316;28;20020;-73
2023/08/29 05:02:30;;;;;;;1999.90;999.90;;;15.50;99.90;;;;;;5083816;28;20028;-73
2023/08/29 05:04:56;;;;;;;1999.90;999.90;;;15.40;99.90;;;;;;5089281;28;20426;-73
2023/08/29 05:07:21;;;;;;;1999.90;999.90;;;15.40;99.90;;;;;;5077597;28;20036;-73
2023/08/29 05:09:47;;;;;;;1999.90;999.90;;;15.40;99.90;;;;;;5079048;28;20028;-69
2023/08/29 05:12:13;;;;;;;1999.90;999.90;;;15.40;99.90;;;;;;5077226;28;20029;-70
2023/08/29 05:14:38;;;;;;;1999.90;999.90;;;15.40;99.90;;;;;;5076123;28;20070;-73
2023/08/29 05:17:04;;;;;;;1999.90;999.90;;;15.30;99.90;;;;;;5076954;28;20067;-73
2023/08/29 05:19:30;;;;;;;1999.90;999.90;;;15.30;99.90;;;;;;5084099;28;20032;-69
2023/08/29 05:21:56;;;;;;;1999.90;999.90;;;15.30;99.90;;;;;;5085838;28;20024;-69
2023/08/29 05:24:21;;;;;;;1999.90;999.90;;;15.30;99.90;;;;;;5096036;28;20091;-69
2023/08/29 05:26:48;;;;;;;1999.90;999.90;;;15.40;99.90;;;;;;5080885;28;20028;-73
2023/08/29 05:29:14;;;;;;;1999.90;999.90;;;15.30;99.90;;;;;;5084429;28;20036;-73
2023/08/29 05:31:39;;;;;;;1999.90;999.90;;;15.30;99.90;;;;;;5084752;28;20385;-73
2023/08/29 05:34:05;;;;;;;1999.90;999.90;;;15.30;99.90;;;;;;5095863;28;20133;-73
2023/08/29 05:36:30;;;;;;;1999.90;999.90;;;15.30;99.90;;;;;;5090080;28;20025;-69
2023/08/29 05:38:56;;;;;;;1999.90;999.90;;;15.30;99.90;;;;;;5075238;28;20021;-73
2023/08/29 05:41:22;;;;;;;1999.90;999.90;;;15.30;99.90;;;;;;5075440;28;20425;-73
2023/08/29 05:43:47;;;;;;;1999.90;999.90;;;15.30;99.90;;;;;;5075294;28;20099;-73
2023/08/29 05:46:13;;;;;;;1999.90;999.90;;;15.30;99.90;;;;;;5069974;28;20422;-73
2023/08/29 05:48:38;;;;;;;1999.90;999.90;;;15.40;99.90;;;;;;5073047;28;20117;-69
2023/08/29 05:51:04;;;;;;;1999.90;999.90;;;15.40;99.90;;;;;;5078353;28;20031;-69
2023/08/29 05:53:30;;;;;;;1999.90;999.90;;;15.50;99.90;;;;;;5078154;28;20027;-73
2023/08/29 05:55:55;;;;;;;1999.90;999.90;;;15.50;99.90;;;;;;5070933;28;20036;-72
2023/08/29 05:58:21;;;;;;;1999.90;999.90;;;15.60;99.90;;;;;;5074638;28;20536;-73
2023/08/29 06:00:48;;;;;;;1999.90;999.90;;;15.50;99.90;;;;;;5072552;28;20051;-69
2023/08/29 06:03:14;;;;;;;1999.90;999.90;;;15.50;99.90;;;;;;5070719;28;20045;-72
2023/08/29 06:05:43;;;;;;;1999.90;999.90;;;15.60;99.90;;;;;;5076729;28;20465;-72
2023/08/29 06:08:09;;;;;;;1999.90;999.90;;;15.60;99.90;;;;;;5077209;28;20020;-72
2023/08/29 06:10:35;;;;;;;1999.90;999.90;;;15.60;99.90;;;;;;5081023;28;20549;-73
2023/08/29 06:13:00;;;;;;;1999.90;999.90;;;15.70;99.90;;;;;;5080521;28;20048;-73
2023/08/29 06:15:26;;;;;;;1999.90;999.90;;;15.70;99.90;;;;;;5073760;28;20090;-74
2023/08/29 06:17:52;;;;;;;1999.90;999.90;;;15.80;99.90;;;;;;5077963;28;20053;-70
2023/08/29 06:20:18;;;;;;;1999.90;999.90;;;15.80;99.90;;;;;;5069257;28;20121;-72
2023/08/29 06:22:43;;;;;;;1999.90;999.90;;;15.80;99.90;;;;;;5072388;28;20480;-73
2023/08/29 06:25:10;;;;;;;1999.90;999.90;;;15.70;99.90;;;;;;5072926;28;20032;-70
2023/08/29 06:27:36;;;;;;;1999.90;999.90;;;15.70;99.90;;;;;;5087135;28;20036;-70
2023/08/29 06:30:02;;;;;;;1999.90;999.90;;;15.60;99.90;;;;;;5080804;28;20028;-70
2023/08/29 06:32:29;;;;;;;1999.90;999.90;;;15.60;99.90;;;;;;5072503;28;20021;-70
2023/08/29 06:34:55;;;;;;;1999.90;999.90;;;15.60;99.90;;;;;;5079155;28;20433;-73
2023/08/29 06:37:21;;;;;;;1999.90;999.90;;;15.60;99.90;;;;;;5080687;28;20027;-72
2023/08/29 06:39:47;;;;;;;1999.90;999.90;;;15.60;99.90;;;;;;5063538;28;20518;-69
2023/08/29 06:42:13;;;;;;;1999.90;999.90;;;15.60;99.90;;;;;;5077844;28;20048;-70
2023/08/29 06:44:38;;;;;;;1999.90;999.90;;;15.60;99.90;;;;;;5071830;28;20020;-69
2023/08/29 06:47:04;;;;;;;1999.90;999.90;;;15.70;99.90;;;;;;5070904;28;20139;-72
2023/08/29 06:49:30;;;;;;;1999.90;999.90;;;15.70;99.90;;;;;;5071466;28;20747;-72
2023/08/29 06:51:56;;;;;;;1999.90;999.90;;;15.70;99.90;;;;;;5070223;28;20035;-72
2023/08/29 06:54:21;;;;;;;1999.90;999.90;;;15.70;99.90;;;;;;5072213;28;20037;-69
2023/08/29 06:56:49;;;;;;;1999.90;999.90;;;15.80;99.90;;;;;;5071340;28;20028;-72
2023/08/29 06:59:15;;;;;;;1999.90;999.90;;;15.80;99.90;;;;;;5072052;28;21383;-70
2023/08/29 07:01:40;;;;;;;1999.90;999.90;;;15.90;99.90;;;;;;5071233;28;20037;-72
2023/08/29 07:04:07;;;;;;;1999.90;999.90;;;16.10;99.90;;;;;;5072007;28;20062;-72
2023/08/29 07:06:32;;;;;;;1999.90;999.90;;;16.30;99.90;;;;;;5072981;28;20104;-72
2023/08/29 07:08:58;;;;;;;1999.90;999.90;;;16.40;99.90;;;;;;5072215;28;20115;-72
2023/08/29 07:11:23;;;;;;;1999.90;999.90;;;16.60;99.90;;;;;;5074719;28;20508;-72
2023/08/29 07:13:49;;;;;;;1999.90;999.90;;;16.80;99.90;;;;;;5071066;28;20032;-72
2023/08/29 07:16:15;;;;;;;1999.90;999.90;;;16.80;99.90;;;;;;5070908;28;20033;-72
2023/08/29 07:18:40;;;;;;;1999.90;999.90;;;17.00;99.90;;;;;;5068297;28;20032;-73
2023/08/29 07:21:06;;;;;;;1999.90;999.90;;;17.20;99.90;;;;;;5072323;28;20028;-69
2023/08/29 07:23:33;;;;;;;1999.90;999.90;;;17.30;99.90;;;;;;5071013;28;20107;-72
2023/08/29 07:25:59;;;;;;;1999.90;999.90;;;17.30;99.90;;;;;;5070221;28;20066;-72
2023/08/29 07:28:25;;;;;;;1999.90;999.90;;;17.50;99.90;;;;;;5075105;28;20043;-69
2023/08/29 07:30:51;;;;;;;1999.90;999.90;;;17.60;99.90;;;;;;5071342;28;20021;-69
2023/08/29 07:33:17;;;;;;;1999.90;999.90;;;17.60;99.90;;;;;;5068009;28;20123;-70
2023/08/29 07:35:45;;;;;;;1999.90;999.90;;;17.50;99.90;;;;;;5070435;28;20117;-69
2023/08/29 07:38:11;;;;;;;1999.90;999.90;;;17.50;99.90;;;;;;5065839;28;20107;-73
2023/08/29 07:40:37;;;;;;;1999.90;999.90;;;17.50;99.90;;;;;;5066687;28;20032;-73
2023/08/29 07:43:07;;;;;;;1999.90;999.90;;;17.40;99.90;;;;;;5069860;28;20033;-72
2023/08/29 07:45:34;;;;;;;1999.90;999.90;;;17.40;99.90;;;;;;5069002;28;20028;-70
2023/08/29 07:48:00;;;;;;;1999.90;999.90;;;17.30;99.90;;;;;;5067274;28;20085;-69
2023/08/29 07:50:26;;;;;;;1999.90;999.90;;;17.20;99.90;;;;;;5078748;28;20036;-72
2023/08/29 07:52:52;;;;;;;1999.90;999.90;;;17.10;99.90;;;;;;5068579;28;20491;-72
2023/08/29 07:55:18;;;;;;;1999.90;999.90;;;17.20;99.90;;;;;;5074509;28;20040;-73
2023/08/29 07:57:43;;;;;;;1999.90;999.90;;;17.30;99.90;;;;;;5069566;28;20033;-73
2023/08/29 08:00:12;;;;;;;1999.90;999.90;;;17.50;99.90;;;;;;5069055;28;20043;-70
2023/08/29 08:02:38;;;;;;;1999.90;999.90;;;17.90;99.90;;;;;;5065135;28;20019;-70
2023/08/29 08:05:10;;;;;;;1999.90;999.90;;;17.70;99.90;;;;;;5077401;28;20055;-73
2023/08/29 08:07:36;;;;;;;1999.90;999.90;;;17.80;99.90;;;;;;5071656;28;20020;-73
2023/08/29 08:10:04;;;;;;;1999.90;999.90;;;18.20;99.90;;;;;;5072828;28;20032;-73
2023/08/29 08:12:30;;;;;;;1999.90;999.90;;;18.50;99.90;;;;;;5068618;28;20028;-73
2023/08/29 08:14:56;;;;;;;1999.90;999.90;;;19.30;99.90;;;;;;5069200;28;20033;-73
2023/08/29 08:17:21;;;;;;;1999.90;999.90;;;19.60;99.90;;;;;;5070099;28;20105;-73
2023/08/29 08:19:50;;;;;;;1999.90;999.90;;;20.70;99.90;;;;;;5071173;28;20507;-73
2023/08/29 08:22:16;;;;;;;1999.90;999.90;;;20.80;99.90;;;;;;5077251;28;20093;-73
2023/08/29 08:24:42;;;;;;;1999.90;999.90;;;20.70;99.90;;;;;;5068523;28;20024;-72
2023/08/29 08:27:07;;;;;;;1999.90;999.90;;;21.50;99.90;;;;;;5071910;28;20037;-73
2023/08/29 08:29:33;;;;;;;1999.90;999.90;;;21.10;99.90;;;;;;5071980;28;20759;-73
2023/08/29 08:31:59;;;;;;;1999.90;999.90;;;20.80;99.90;;;;;;5069561;28;20617;-73
2023/08/29 08:34:25;;;;;;;1999.90;999.90;;;20.50;99.90;;;;;;5072198;28;20028;-73
2023/08/29 08:36:51;;;;;;;1999.90;999.90;;;20.10;99.90;;;;;;5071749;28;20032;-72
2023/08/29 08:39:17;;;;;;;1999.90;999.90;;;19.90;99.90;;;;;;5073115;28;20032;-72
2023/08/29 08:41:43;;;;;;;1999.90;999.90;;;19.90;99.90;;;;;;5073565;28;20028;-73
2023/08/29 08:44:11;;;;;;;1999.90;999.90;;;19.80;99.90;;;;;;5069147;28;20467;-71
2023/08/29 08:46:38;;;;;;;1999.90;999.90;;;19.70;99.90;;;;;;5073170;28;20462;-73
2023/08/29 08:49:04;;;;;;;1999.90;999.90;;;20.30;99.90;;;;;;5068323;28;20028;-73
2023/08/29 08:51:32;;;;;;;1999.90;999.90;;;20.70;99.90;;;;;;5069327;28;20340;-71
2023/08/29 08:53:58;;;;;;;1999.90;999.90;;;20.80;99.90;;;;;;5069659;28;20032;-73
2023/08/29 08:56:23;;;;;;;1999.90;999.90;;;20.90;99.90;;;;;;5070474;28;20407;-74
2023/08/29 08:58:49;;;;;;;1999.90;999.90;;;21.10;99.90;;;;;;5068284;28;20141;-73
2023/08/29 09:01:15;;;;;;;1999.90;999.90;;;21.30;99.90;;;;;;5068333;28;20039;-74
2023/08/29 09:03:42;;;;;;;1999.90;999.90;;;21.50;99.90;;;;;;5068781;28;20499;-70
2023/08/29 09:06:09;;;;;;;1999.90;999.90;;;21.70;99.90;;;;;;5069513;28;20040;-72
2023/08/29 09:08:36;;;;;;;1999.90;999.90;;;21.90;99.90;;;;;;5065414;28;20475;-73
2023/08/29 09:11:04;;;;;;;1999.90;999.90;;;22.10;99.90;;;;;;5071349;28;20025;-73
2023/08/29 09:13:30;;;;;;;1999.90;999.90;;;22.00;99.90;;;;;;5065124;28;20020;-74
2023/08/29 09:15:59;;;;;;;1999.90;999.90;;;21.80;99.90;;;;;;5066925;28;20399;-71
2023/08/29 09:18:25;;;;;;;1999.90;999.90;;;21.40;99.90;;;;;;5066131;28;20035;-71
2023/08/29 09:20:55;;;;;;;1999.90;999.90;;;21.30;99.90;;;;;;5066887;28;20032;-73
2023/08/29 09:23:25;;;;;;;1999.90;999.90;;;21.20;99.90;;;;;;5073697;28;20024;-73
2023/08/29 09:25:58;;;;;;;1999.90;999.90;;;22.00;99.90;;;;;;5067830;28;20060;-73
2023/08/29 09:28:28;;;;;;;1999.90;999.90;;;24.40;99.90;;;;;;5066318;28;20068;-73
2023/08/29 09:30:55;;;;;;;1999.90;999.90;;;24.50;99.90;;;;;;5067087;28;20036;-74
2023/08/29 09:33:21;;;;;;;1999.90;999.90;;;25.00;99.90;;;;;;5068448;28;20028;-73
2023/08/29 09:35:49;;;;;;;1999.90;999.90;;;24.20;99.90;;;;;;5068043;28;20376;-73
2023/08/29 09:38:18;;;;;;;1999.90;999.90;;;26.30;99.90;;;;;;5067762;28;20060;-73
2023/08/29 09:40:46;;;;;;;1999.90;999.90;;;26.90;99.90;;;;;;5068898;28;20033;-71
2023/08/29 09:43:15;;;;;;;1999.90;999.90;;;25.50;99.90;;;;;;5068103;28;20021;-71
2023/08/29 09:45:41;;;;;;;1999.90;999.90;;;25.00;99.90;;;;;;5069435;28;20020;-73
2023/08/29 09:48:08;;;;;;;1999.90;999.90;;;25.50;99.90;;;;;;5067516;28;20047;-73
2023/08/29 09:50:34;;;;;;;1999.90;999.90;;;24.40;99.90;;;;;;5068813;28;20035;-71
2023/08/29 09:53:01;;;;;;;1999.90;999.90;;;23.20;99.90;;;;;;5068523;28;20089;-73
2023/08/29 09:55:29;;;;;;;1999.90;999.90;;;22.20;99.90;;;;;;5077603;28;20047;-71
2023/08/29 09:57:55;;;;;;;1999.90;999.90;;;21.90;99.90;;;;;;5072975;28;20094;-71
2023/08/29 10:00:21;;;;;;;1999.90;999.90;;;21.70;99.90;;;;;;5073275;28;20059;-73
2023/08/29 10:02:48;;;;;;;1999.90;999.90;;;21.20;99.90;;;;;;5070679;28;20063;-74
2023/08/29 10:05:18;;;;;;;1999.90;999.90;;;21.00;99.90;;;;;;5067671;28;20438;-73
2023/08/29 10:07:46;;;;;;;1999.90;999.90;;;20.90;99.90;;;;;;5071253;28;20040;-73
2023/08/29 10:10:13;;;;;;;1999.90;999.90;;;21.10;99.90;;;;;;5073653;28;20059;-70
2023/08/29 10:12:39;;;;;;;1999.90;999.90;;;21.20;99.90;;;;;;5070171;28;20028;-73
2023/08/29 10:15:05;;;;;;;1999.90;999.90;;;21.10;99.90;;;;;;5061936;28;20021;-73
2023/08/29 10:17:36;;;;;;;1999.90;999.90;;;21.50;99.90;;;;;;5069224;28;20139;-74
2023/08/29 10:20:10;;;;;;;1999.90;999.90;;;21.70;99.90;;;;;;5069754;28;20028;-73
2023/08/29 10:22:38;;;;;;;1999.90;999.90;;;22.50;99.90;;;;;;5067494;28;20081;-71
2023/08/29 10:25:04;;;;;;;1999.90;999.90;;;23.20;99.90;;;;;;5068634;28;20048;-73
2023/08/29 10:27:30;;;;;;;1999.90;999.90;;;23.40;99.90;;;;;;5065075;28;20067;-74
2023/08/29 10:29:56;;;;;;;1999.90;999.90;;;22.70;99.90;;;;;;5068382;28;20033;-73
2023/08/29 10:32:24;;;;;;;1999.90;999.90;;;22.20;99.90;;;;;;5069657;28;20082;-73
2023/08/29 10:34:51;;;;;;;1999.90;999.90;;;22.00;99.90;;;;;;5072295;28;20027;-71
2023/08/29 10:37:18;;;;;;;1999.90;999.90;;;21.90;99.90;;;;;;5073730;28;20521;-71
2023/08/29 10:39:44;;;;;;;1999.90;999.90;;;22.80;99.90;;;;;;5061447;28;20495;-73
2023/08/29 10:42:16;;;;;;;1999.90;999.90;;;22.90;99.90;;;;;;5066848;28;20082;-73
2023/08/29 10:44:46;;;;;;;1999.90;999.90;;;22.60;99.90;;;;;;5070426;28;20051;-74
2023/08/29 10:47:30;;;;;;;1999.90;999.90;;;22.10;99.90;;;;;;5067120;28;20060;-71
2023/08/29 10:50:05;;;;;;;1999.90;999.90;;;22.10;99.90;;;;;;5065792;28;20109;-71
2023/08/29 10:52:40;;;;;;;1999.90;999.90;;;22.00;99.90;;;;;;5066026;28;20036;-73
2023/08/29 10:55:29;;;;;;;1999.90;999.90;;;22.00;99.90;;;;;;5075065;28;20193;-71
2023/08/29 10:58:01;;;;;;;1999.90;999.90;;;22.20;99.90;;;;;;5073751;28;20032;-73
2023/08/29 11:00:51;;;;;;;1999.90;999.90;;;22.10;99.90;;;;;;5066024;28;20414;-71
2023/08/29 11:03:38;;;;;;;1999.90;999.90;;;21.70;99.90;;;;;;5064696;28;20123;-71
2023/08/29 11:06:03;;;;;;;1999.90;999.90;;;21.90;99.90;;;;;;5067227;28;20086;-73
2023/08/29 11:08:29;;;;;;;1999.90;999.90;;;21.80;99.90;;;;;;5071036;28;20040;-73
2023/08/29 11:11:13;;;;;;;1999.90;999.90;;;21.30;99.90;;;;;;5072514;28;20734;-73
2023/08/29 11:13:57;;;;;;;1999.90;999.90;;;21.10;99.90;;;;;;5067119;28;20047;-71
2023/08/29 11:16:23;;;;;;;1999.90;999.90;;;21.00;99.90;;;;;;5070397;28;20032;-70
2023/08/29 11:19:06;;;;;;;1999.90;999.90;;;21.00;99.90;;;;;;5069544;28;20107;-73
2023/08/29 11:21:33;;;;;;;1999.90;999.90;;;21.10;99.90;;;;;;5069009;28;20027;-73
2023/08/29 11:23:59;;;;;;;1999.90;999.90;;;21.30;99.90;;;;;;5075809;28;20035;-73
2023/08/29 11:26:25;;;;;;;1999.90;999.90;;;21.40;99.90;;;;;;5072578;28;20067;-71
2023/08/29 11:28:51;;;;;;;1999.90;999.90;;;21.40;99.90;;;;;;5068104;28;20052;-71
2023/08/29 11:31:18;;;;;;;1999.90;999.90;;;21.00;99.90;;;;;;5066759;28;20063;-73
2023/08/29 11:33:48;;;;;;;1999.90;999.90;;;20.90;99.90;;;;;;5070185;28;20044;-73
2023/08/29 11:36:15;;;;;;;1999.90;999.90;;;20.80;99.90;;;;;;5074152;28;20052;-70
2023/08/29 11:38:43;;;;;;;1999.90;999.90;;;20.50;99.90;;;;;;5072989;28;20499;-73
2023/08/29 11:41:10;;;;;;;1999.90;999.90;;;20.20;99.90;;;;;;5070134;28;20564;-70
2023/08/29 11:43:36;;;;;;;1999.90;999.90;;;20.20;99.90;;;;;;5073572;28;20020;-71
2023/08/29 11:46:03;;;;;;;1999.90;999.90;;;20.30;99.90;;;;;;5069791;28;20027;-71
2023/08/29 11:48:32;;;;;;;1999.90;999.90;;;20.50;99.90;;;;;;5065689;28;20024;-71
2023/08/29 11:51:06;;;;;;;1999.90;999.90;;;20.50;99.90;;;;;;5070795;28;20031;-73
2023/08/29 11:53:34;;;;;;;1999.90;999.90;;;20.50;99.90;;;;;;5073603;28;20028;-71
2023/08/29 11:56:02;;;;;;;1999.90;999.90;;;20.50;99.90;;;;;;5065171;28;20086;-73
2023/08/29 11:58:33;;;;;;;1999.90;999.90;;;20.50;99.90;;;;;;5075258;28;20035;-73